Ithaca Tompkins Regional Airport
KITH : now visible

Airfield :











YOU CAN JOIN US ON...

 
LOGIN :

Register | Disclaimer

   EN    FR    IT 

 









Legend :    VFR   Marginal VFR   IFR   Intensive IFR   Very Intensive IFR
Visi :
Ceiling :
>= 8 km
>= 3000ft
5 to 8 km
1000 to 3000 ft
1500m to 5 km
500 to 1000 ft
800 to 1500m
200 to 500 ft
< 800m
< 200 ft
Symbols :   Thunderstorms  Fog  Heavy snow  Heavy precipitations  Wind > 20 kt






- Airport Elevation : 1099 ft
- IATA code : ITH


KITH - Ithaca Tompkins Regional

CURRENT METAR :
  • 251756Z 04005KT 10SM OVC100 09/M02 A3023 RMK AO2 SLP244 T00891017 10089 20017 58014

EXPIRED METARs :
  • 251656Z VRB06KT 10SM BKN100 08/M01 A3025 RMK AO2 SLP251 T00781011
  • 251556Z VRB06KT 10SM FEW100 07/M01 A3027 RMK AO2 SLP259 T00721006

TAF KITH
Valid from the 25 at 18:00 until the 26 at 18:00 UTC


251737Z 2518/2618 09008KT P6SM BKN100
FM260500 14007KT P6SM -SHRA OVC025
FM260700 14008KT 5SM -SHRA BR OVC015
FM261000 15008KT 3SM -SHRA BR OVC008
KZNY FIR / North America



MET'MAP, your aeronautical weather chart ! - Copyright ORBIFLY December 2007 - Disclaimer

ORBIFLY MET'MAP TEAM :

Programming & Development : Alexandra Zaïnal
Concept & original design : Baudouin d'Aumeries
Assistance for programming : Marc-Olivier Méhu
Technical & hardware support : Manuel Goepfert

Contact : metmap@orbifly.com




SOURCES & CREDITS :

   NOAA       Earth
Advisory